Time;durP1;ratioP1;P1;durP2;ratioP2;P2;SDS_P1;SDS_P2;PMS_P1;PMS_P2;Temp;Humidity;BMP_temperature;BMP_pressure;BME280_temperature;BME280_humidity;BME280_pressure;Samples;Min_cycle;Max_cycle;Signal;HPM_P1;HPM_P2
2023/08/02 00:02:25;;;;;;;;;;;22.40;88.80;;;;;;5075093;28;19908;-67
2023/08/02 00:04:50;;;;;;;;;;;22.40;88.80;;;;;;5075272;28;19905;-67
2023/08/02 00:07:16;;;;;;;;;;;22.40;88.80;;;;;;5074355;28;19998;-67
2023/08/02 00:09:41;;;;;;;;;;;22.40;88.80;;;;;;5074853;28;20016;-66
2023/08/02 00:12:07;;;;;;;;;;;22.40;88.80;;;;;;5075126;28;19908;-66
2023/08/02 00:14:32;;;;;;;;;;;22.40;88.80;;;;;;5074854;28;19905;-66
2023/08/02 00:16:57;;;;;;;;;;;22.40;88.80;;;;;;5075040;28;19950;-66
2023/08/02 00:19:23;;;;;;;;;;;22.40;88.80;;;;;;5074725;28;19904;-66
2023/08/02 00:21:48;;;;;;;;;;;22.40;88.80;;;;;;5074954;28;19912;-66
2023/08/02 00:24:14;;;;;;;;;;;22.40;89.30;;;;;;5074966;28;19908;-66
2023/08/02 00:26:39;;;;;;;;;;;22.40;88.80;;;;;;5074875;28;19904;-66
2023/08/02 00:29:05;;;;;;;;;;;22.40;88.70;;;;;;5074965;28;19951;-66
2023/08/02 00:31:30;;;;;;;;;;;22.40;88.80;;;;;;5074517;28;20351;-66
2023/08/02 00:33:56;;;;;;;;;;;22.40;88.70;;;;;;5074746;28;19904;-67
2023/08/02 00:36:21;;;;;;;;;;;22.40;88.80;;;;;;5074705;28;19904;-67
2023/08/02 00:38:47;;;;;;;;;;;22.40;88.80;;;;;;5074610;28;19911;-66
2023/08/02 00:41:12;;;;;;;;;;;22.40;88.80;;;;;;5074260;28;19912;-66
2023/08/02 00:43:41;;;;;;;;;;;22.40;88.70;;;;;;5073318;28;20026;-66
2023/08/02 00:46:07;;;;;;;;;;;22.40;88.70;;;;;;5074683;28;19916;-66
2023/08/02 00:48:34;;;;;;;;;;;22.40;88.70;;;;;;5074339;28;20022;-66
2023/08/02 00:51:00;;;;;;;;;;;22.40;88.70;;;;;;5074155;28;19916;-65
2023/08/02 00:53:26;;;;;;;;;;;22.40;88.70;;;;;;5074444;28;19908;-66
2023/08/02 00:55:51;;;;;;;;;;;22.40;88.70;;;;;;5074036;28;19905;-67
2023/08/02 00:58:17;;;;;;;;;;;22.40;88.70;;;;;;5074422;28;19912;-65
2023/08/02 01:00:42;;;;;;;;;;;22.40;88.70;;;;;;5074355;28;19905;-65
2023/08/02 01:03:08;;;;;;;;;;;22.40;88.80;;;;;;5074293;28;19904;-65
2023/08/02 01:05:37;;;;;;;;;;;22.40;88.80;;;;;;5106875;28;19904;-65
2023/08/02 01:08:04;;;;;;;;;;;22.40;88.80;;;;;;5073849;28;19912;-66
2023/08/02 01:10:35;;;;;;;;;;;22.40;88.80;;;;;;5074210;28;19957;-65
2023/08/02 01:13:04;;;;;;;;;;;22.40;88.80;;;;;;5073850;28;19904;-66
2023/08/02 01:15:30;;;;;;;;;;;22.40;88.80;;;;;;5072858;28;19904;-66
2023/08/02 01:17:56;;;;;;;;;;;22.40;88.80;;;;;;5074116;28;19909;-66
2023/08/02 01:20:21;;;;;;;;;;;22.40;88.80;;;;;;5073620;28;19950;-67
2023/08/02 01:22:47;;;;;;;;;;;22.40;88.80;;;;;;5106471;28;19905;-66
2023/08/02 01:25:12;;;;;;;;;;;22.40;88.80;;;;;;5074042;28;19914;-66
2023/08/02 01:27:49;;;;;;;;;;;22.40;89.30;;;;;;5073699;28;19904;-66
2023/08/02 01:30:16;;;;;;;;;;;22.40;88.80;;;;;;5074019;28;20260;-66
2023/08/02 01:32:42;;;;;;;;;;;22.40;88.80;;;;;;5073589;28;20351;-66
2023/08/02 01:35:08;;;;;;;;;;;22.40;88.80;;;;;;5073983;28;19908;-66
2023/08/02 01:37:36;;;;;;;;;;;22.40;88.80;;;;;;5073675;28;20373;-65
2023/08/02 01:40:02;;;;;;;;;;;22.40;88.80;;;;;;5073727;28;19912;-66
2023/08/02 01:42:28;;;;;;;;;;;22.40;88.80;;;;;;5106354;28;19904;-64
2023/08/02 01:44:53;;;;;;;;;;;22.40;88.80;;;;;;5074118;28;19916;-67
2023/08/02 01:47:19;;;;;;;;;;;22.40;89.30;;;;;;5073830;28;19936;-65
2023/08/02 01:49:44;;;;;;;;;;;22.40;88.70;;;;;;5073543;28;19908;-66
2023/08/02 01:52:10;;;;;;;;;;;22.40;88.70;;;;;;5073560;28;19920;-65
2023/08/02 01:54:35;;;;;;;;;;;22.40;88.70;;;;;;5073848;28;19909;-66
2023/08/02 01:57:01;;;;;;;;;;;22.40;88.70;;;;;;5073898;28;19904;-65
2023/08/02 01:59:26;;;;;;;;;;;22.40;88.80;;;;;;5073777;28;20348;-66
2023/08/02 02:01:52;;;;;;;;;;;22.40;88.70;;;;;;5073508;28;19908;-66
2023/08/02 02:04:17;;;;;;;;;;;22.40;88.70;;;;;;5073765;28;19905;-65
2023/08/02 02:06:43;;;;;;;;;;;22.40;88.70;;;;;;5073448;28;19904;-65
2023/08/02 02:09:08;;;;;;;;;;;22.40;88.70;;;;;;5073353;28;19908;-66
2023/08/02 02:11:34;;;;;;;;;;;22.30;88.70;;;;;;5073684;28;19909;-66
2023/08/02 02:13:59;;;;;;;;;;;22.40;88.70;;;;;;5073437;28;19904;-65
2023/08/02 02:16:24;;;;;;;;;;;22.40;88.80;;;;;;5074068;28;20303;-66
2023/08/02 02:18:50;;;;;;;;;;;22.40;88.70;;;;;;5073316;28;19905;-66
2023/08/02 02:21:15;;;;;;;;;;;22.40;88.70;;;;;;5073335;28;19909;-65
2023/08/02 02:23:41;;;;;;;;;;;22.40;88.70;;;;;;5073261;28;19911;-65
2023/08/02 02:26:06;;;;;;;;;;;22.30;88.70;;;;;;5073582;28;19912;-65
2023/08/02 02:28:32;;;;;;;;;;;22.40;88.70;;;;;;5073523;28;19975;-65
2023/08/02 02:30:57;;;;;;;;;;;22.30;88.70;;;;;;5074919;28;19977;-65
2023/08/02 02:33:23;;;;;;;;;;;22.30;88.80;;;;;;5109544;28;19962;-65
2023/08/02 02:35:48;;;;;;;;;;;22.40;88.80;;;;;;5076913;28;20007;-65
2023/08/02 02:38:14;;;;;;;;;;;22.30;88.80;;;;;;5076649;28;19909;-65
2023/08/02 02:40:39;;;;;;;;;;;22.30;88.80;;;;;;5075662;28;20054;-65
2023/08/02 02:43:05;;;;;;;;;;;22.40;88.80;;;;;;5076529;28;19912;-65
2023/08/02 02:45:30;;;;;;;;;;;22.30;88.80;;;;;;5076959;28;19961;-64
2023/08/02 02:47:55;;;;;;;;;;;22.30;88.80;;;;;;5076589;28;20347;-65
2023/08/02 02:50:21;;;;;;;;;;;22.30;88.90;;;;;;5076705;28;19908;-65
2023/08/02 02:52:46;;;;;;;;;;;22.30;89.00;;;;;;5076723;28;20258;-65
2023/08/02 02:55:12;;;;;;;;;;;22.30;89.10;;;;;;5076459;28;19958;-65
2023/08/02 02:57:37;;;;;;;;;;;22.30;89.10;;;;;;5076718;28;20374;-65
2023/08/02 03:00:05;;;;;;;;;;;22.40;89.20;;;;;;5076727;28;19904;-65
2023/08/02 03:02:31;;;;;;;;;;;22.30;89.20;;;;;;5076378;28;20255;-64
2023/08/02 03:04:56;;;;;;;;;;;22.30;89.20;;;;;;5076619;28;19915;-65
2023/08/02 03:07:21;;;;;;;;;;;22.30;89.20;;;;;;5076518;28;19949;-67
2023/08/02 03:09:47;;;;;;;;;;;22.30;88.90;;;;;;5075025;28;20355;-65
2023/08/02 03:12:12;;;;;;;;;;;22.30;88.30;;;;;;5076303;28;19916;-65
2023/08/02 03:14:38;;;;;;;;;;;22.30;88.70;;;;;;5076137;28;19908;-65
2023/08/02 03:17:04;;;;;;;;;;;22.30;89.00;;;;;;5076279;28;20409;-65
2023/08/02 03:19:29;;;;;;;;;;;22.30;89.20;;;;;;5076890;28;19904;-64
2023/08/02 03:21:55;;;;;;;;;;;22.30;89.20;;;;;;5076165;28;19908;-65
2023/08/02 03:24:20;;;;;;;;;;;22.30;89.30;;;;;;5076197;28;20374;-65
2023/08/02 03:26:46;;;;;;;;;;;22.30;89.30;;;;;;5075905;28;19904;-65
2023/08/02 03:29:11;;;;;;;;;;;22.30;89.30;;;;;;5075972;28;19995;-65
2023/08/02 03:31:37;;;;;;;;;;;22.30;89.30;;;;;;5076134;28;19915;-64
2023/08/02 03:34:02;;;;;;;;;;;22.30;89.30;;;;;;5075608;28;20412;-65
2023/08/02 03:36:28;;;;;;;;;;;22.30;89.30;;;;;;5093983;28;19904;-65
2023/08/02 03:38:53;;;;;;;;;;;22.30;89.20;;;;;;5095825;28;19908;-65
2023/08/02 03:41:19;;;;;;;;;;;22.20;89.20;;;;;;5095696;28;19904;-65
2023/08/02 03:43:44;;;;;;;;;;;22.30;89.20;;;;;;5095212;28;19911;-65
2023/08/02 03:46:10;;;;;;;;;;;22.30;89.20;;;;;;5095018;28;19916;-64
2023/08/02 03:48:35;;;;;;;;;;;22.30;89.20;;;;;;5094634;28;20007;-64
2023/08/02 03:51:01;;;;;;;;;;;22.30;89.20;;;;;;5094810;28;19908;-64
2023/08/02 03:53:27;;;;;;;;;;;22.30;89.20;;;;;;5094954;28;19905;-64
2023/08/02 03:55:52;;;;;;;;;;;22.30;89.20;;;;;;5094734;28;19904;-63
2023/08/02 03:58:18;;;;;;;;;;;22.20;89.20;;;;;;5094763;28;19904;-64
2023/08/02 04:00:44;;;;;;;;;;;22.30;89.20;;;;;;5094597;28;20338;-64
2023/08/02 04:03:09;;;;;;;;;;;22.20;89.10;;;;;;5095674;28;19904;-65
2023/08/02 04:05:35;;;;;;;;;;;22.20;89.10;;;;;;5095308;28;19959;-66
2023/08/02 04:08:00;;;;;;;;;;;22.20;89.10;;;;;;5095567;28;20350;-64
2023/08/02 04:10:26;;;;;;;;;;;22.20;89.10;;;;;;5095266;28;19919;-65
2023/08/02 04:12:51;;;;;;;;;;;22.20;89.10;;;;;;5095103;28;20408;-64
2023/08/02 04:15:17;;;;;;;;;;;22.20;89.10;;;;;;5095252;28;19911;-65
2023/08/02 04:17:42;;;;;;;;;;;22.20;89.10;;;;;;5095290;28;19992;-65
2023/08/02 04:20:08;;;;;;;;;;;22.20;89.10;;;;;;5094891;28;19915;-65
2023/08/02 04:22:33;;;;;;;;;;;22.20;89.60;;;;;;5094997;28;19904;-64
2023/08/02 04:24:59;;;;;;;;;;;22.20;89.10;;;;;;5095484;28;20242;-65
2023/08/02 04:27:24;;;;;;;;;;;22.20;89.10;;;;;;5095174;28;19942;-65
2023/08/02 04:29:50;;;;;;;;;;;22.10;89.10;;;;;;5095004;28;19915;-65
2023/08/02 04:32:15;;;;;;;;;;;22.20;89.20;;;;;;5095428;28;19912;-65
2023/08/02 04:34:41;;;;;;;;;;;22.10;89.20;;;;;;5094599;28;19905;-65
2023/08/02 04:37:06;;;;;;;;;;;22.10;89.30;;;;;;5094879;28;19904;-65
2023/08/02 04:39:32;;;;;;;;;;;22.10;89.40;;;;;;5095070;28;19969;-64
2023/08/02 04:42:00;;;;;;;;;;;22.10;89.40;;;;;;5094534;28;19911;-65
2023/08/02 04:44:26;;;;;;;;;;;22.10;89.50;;;;;;5094659;28;19915;-64
2023/08/02 04:46:51;;;;;;;;;;;22.10;89.60;;;;;;5094498;28;20012;-64
2023/08/02 04:49:17;;;;;;;;;;;22.10;89.70;;;;;;5094638;28;19915;-64
2023/08/02 04:51:42;;;;;;;;;;;22.10;89.70;;;;;;5094657;28;19908;-64
2023/08/02 04:54:08;;;;;;;;;;;22.10;89.80;;;;;;5093072;28;19957;-64
2023/08/02 04:56:33;;;;;;;;;;;22.10;89.80;;;;;;5094366;28;20358;-64
2023/08/02 04:58:59;;;;;;;;;;;22.10;89.80;;;;;;5094644;28;19962;-64
2023/08/02 05:01:24;;;;;;;;;;;22.10;89.90;;;;;;5094797;28;19950;-64
2023/08/02 05:03:50;;;;;;;;;;;22.10;89.90;;;;;;5094211;28;19996;-64
2023/08/02 05:06:15;;;;;;;;;;;22.10;89.90;;;;;;5094182;28;20293;-65
2023/08/02 05:08:41;;;;;;;;;;;22.10;89.90;;;;;;5094230;28;19915;-65
2023/08/02 05:11:07;;;;;;;;;;;22.10;90.00;;;;;;5094037;28;20318;-65
2023/08/02 05:13:33;;;;;;;;;;;22.10;90.00;;;;;;5094095;28;19904;-65
2023/08/02 05:15:58;;;;;;;;;;;22.10;89.90;;;;;;5094396;28;19904;-65
2023/08/02 05:18:24;;;;;;;;;;;22.10;90.00;;;;;;5094245;28;19912;-65
2023/08/02 05:20:49;;;;;;;;;;;22.00;89.90;;;;;;5092961;28;19904;-65
2023/08/02 05:23:15;;;;;;;;;;;22.00;89.90;;;;;;5094430;28;19904;-65
2023/08/02 05:25:41;;;;;;;;;;;22.00;89.90;;;;;;5093974;28;19904;-65
2023/08/02 05:28:06;;;;;;;;;;;22.00;89.90;;;;;;5093946;28;20245;-64
2023/08/02 05:30:32;;;;;;;;;;;22.00;89.90;;;;;;5093797;28;20358;-65
2023/08/02 05:32:58;;;;;;;;;;;22.00;90.00;;;;;;5094337;28;20238;-64
2023/08/02 05:35:25;;;;;;;;;;;22.00;90.00;;;;;;5093989;28;19904;-65
2023/08/02 05:37:51;;;;;;;;;;;22.00;90.20;;;;;;5092437;28;19905;-64
2023/08/02 05:40:17;;;;;;;;;;;22.00;90.00;;;;;;5073471;28;19905;-65
2023/08/02 05:42:42;;;;;;;;;;;22.00;90.00;;;;;;5073591;28;19966;-65
2023/08/02 05:45:09;;;;;;;;;;;22.00;89.90;;;;;;5088617;28;19920;-67
2023/08/02 05:47:35;;;;;;;;;;;22.00;89.90;;;;;;5084425;28;19909;-70
2023/08/02 05:50:00;;;;;;;;;;;22.00;89.90;;;;;;5077311;28;19912;-71
2023/08/02 05:52:26;;;;;;;;;;;22.00;89.00;;;;;;5072313;28;19917;-66
2023/08/02 05:54:51;;;;;;;;;;;22.00;89.10;;;;;;5076315;28;20255;-60
2023/08/02 05:57:17;;;;;;;;;;;22.00;89.40;;;;;;5080531;28;19919;-70
2023/08/02 05:59:42;;;;;;;;;;;22.00;89.50;;;;;;5084143;28;20308;-69
2023/08/02 06:02:08;;;;;;;;;;;22.00;89.80;;;;;;5092104;28;19986;-62
2023/08/02 06:04:34;;;;;;;;;;;22.00;90.10;;;;;;5093659;28;19908;-64
2023/08/02 06:07:00;;;;;;;;;;;22.00;90.20;;;;;;5086958;28;19913;-66
2023/08/02 06:09:25;;;;;;;;;;;22.00;90.30;;;;;;5077219;28;19970;-67
2023/08/02 06:11:51;;;;;;;;;;;22.00;90.30;;;;;;5075140;28;20006;-65
2023/08/02 06:14:16;;;;;;;;;;;22.00;90.40;;;;;;5096329;28;20370;-65
2023/08/02 06:16:42;;;;;;;;;;;22.00;90.40;;;;;;5082362;28;19973;-67
2023/08/02 06:19:07;;;;;;;;;;;22.00;90.40;;;;;;5076758;28;19912;-65
2023/08/02 06:21:34;;;;;;;;;;;22.00;90.50;;;;;;5075739;28;19912;-68
2023/08/02 06:24:00;;;;;;;;;;;22.00;90.50;;;;;;5077131;28;20003;-61
2023/08/02 06:26:26;;;;;;;;;;;22.00;90.50;;;;;;5076725;28;20033;-63
2023/08/02 06:28:52;;;;;;;;;;;22.00;90.60;;;;;;5075788;28;19917;-61
2023/08/02 06:31:17;;;;;;;;;;;22.00;90.60;;;;;;5078969;28;19923;-62
2023/08/02 06:33:43;;;;;;;;;;;22.00;90.60;;;;;;5098796;28;19912;-62
2023/08/02 06:36:08;;;;;;;;;;;22.00;90.60;;;;;;5094344;28;19916;-63
2023/08/02 06:38:34;;;;;;;;;;;22.00;90.60;;;;;;5069435;28;19918;-61
2023/08/02 06:40:59;;;;;;;;;;;22.00;90.60;;;;;;5074423;28;19916;-62
2023/08/02 06:43:25;;;;;;;;;;;22.00;90.60;;;;;;5081715;28;20275;-67
2023/08/02 06:45:50;;;;;;;;;;;22.00;90.70;;;;;;5075196;28;19968;-67
2023/08/02 06:48:17;;;;;;;;;;;22.00;90.70;;;;;;5081033;28;19923;-65
2023/08/02 06:50:43;;;;;;;;;;;22.00;90.70;;;;;;5097027;28;19965;-65
2023/08/02 06:53:08;;;;;;;;;;;22.00;90.60;;;;;;5095590;28;19912;-68
2023/08/02 06:55:34;;;;;;;;;;;22.00;90.50;;;;;;5086276;28;19919;-61
2023/08/02 06:57:59;;;;;;;;;;;22.00;90.50;;;;;;5074761;28;20287;-62
2023/08/02 07:00:25;;;;;;;;;;;22.00;90.60;;;;;;5074351;28;19916;-66
2023/08/02 07:02:50;;;;;;;;;;;22.00;90.60;;;;;;5076161;28;19909;-67
2023/08/02 07:05:16;;;;;;;;;;;22.00;90.60;;;;;;5082250;28;19912;-68
2023/08/02 07:07:41;;;;;;;;;;;22.00;90.60;;;;;;5096169;28;19915;-70
2023/08/02 07:10:07;;;;;;;;;;;22.00;90.60;;;;;;5086301;28;19929;-78
2023/08/02 07:12:32;;;;;;;;;;;22.00;90.60;;;;;;5072933;28;20334;-70
2023/08/02 07:14:58;;;;;;;;;;;22.00;90.60;;;;;;5074897;28;20017;-73
2023/08/02 07:17:23;;;;;;;;;;;22.00;90.60;;;;;;5055690;28;19909;-72
2023/08/02 07:19:48;;;;;;;;;;;22.00;90.60;;;;;;5071786;28;20267;-69
2023/08/02 07:22:17;;;;;;;;;;;22.00;90.60;;;;;;5072695;28;19912;-65
2023/08/02 07:24:45;;;;;;;;;;;22.00;90.70;;;;;;5076079;28;19908;-64
2023/08/02 07:27:11;;;;;;;;;;;22.00;90.70;;;;;;5075762;28;19909;-65
2023/08/02 07:29:36;;;;;;;;;;;22.00;90.70;;;;;;5075881;28;20266;-65
2023/08/02 07:32:02;;;;;;;;;;;22.00;90.70;;;;;;5074868;28;19995;-66
2023/08/02 07:34:27;;;;;;;;;;;22.00;90.70;;;;;;5075815;28;19915;-70
2023/08/02 07:36:52;;;;;;;;;;;22.00;90.70;;;;;;5084867;28;19913;-69
2023/08/02 07:39:18;;;;;;;;;;;22.00;90.70;;;;;;5096162;28;19908;-79
2023/08/02 07:41:43;;;;;;;;;;;22.00;90.70;;;;;;5095389;28;19914;-64
2023/08/02 07:44:09;;;;;;;;;;;22.00;90.70;;;;;;5094785;28;19908;-68
2023/08/02 07:46:34;;;;;;;;;;;22.00;90.70;;;;;;5079887;28;19944;-68
2023/08/02 07:49:00;;;;;;;;;;;22.00;90.70;;;;;;5074293;28;20272;-68
2023/08/02 07:51:25;;;;;;;;;;;22.00;90.70;;;;;;5075305;28;19924;-64
2023/08/02 07:53:51;;;;;;;;;;;22.10;90.70;;;;;;5075288;28;19909;-66
2023/08/02 07:56:16;;;;;;;;;;;22.00;90.70;;;;;;5074420;28;20277;-66
2023/08/02 07:58:42;;;;;;;;;;;22.00;90.80;;;;;;5075117;28;19930;-66
2023/08/02 08:01:08;;;;;;;;;;;22.00;90.80;;;;;;5084509;28;20541;-69
2023/08/02 08:03:33;;;;;;;;;;;22.10;90.80;;;;;;5074099;28;19912;-71
2023/08/02 08:05:59;;;;;;;;;;;22.10;90.80;;;;;;5075337;28;19932;-67
2023/08/02 08:08:24;;;;;;;;;;;22.10;90.80;;;;;;5074749;28;19915;-64
2023/08/02 08:10:51;;;;;;;;;;;22.00;90.70;;;;;;5074997;28;19919;-64
2023/08/02 08:13:17;;;;;;;;;;;22.10;90.80;;;;;;5072954;28;19923;-69
2023/08/02 08:15:42;;;;;;;;;;;22.10;90.80;;;;;;5073860;28;19908;-65
2023/08/02 08:18:08;;;;;;;;;;;22.10;90.80;;;;;;5073436;28;19924;-63
2023/08/02 08:20:33;;;;;;;;;;;22.10;90.80;;;;;;5072258;28;19935;-66
2023/08/02 08:22:58;;;;;;;;;;;22.10;90.80;;;;;;5074329;28;19991;-69
2023/08/02 08:25:24;;;;;;;;;;;22.10;90.80;;;;;;5073369;28;19916;-68
2023/08/02 08:27:49;;;;;;;;;;;22.10;90.80;;;;;;5072832;28;20308;-69
2023/08/02 08:30:15;;;;;;;;;;;22.10;90.80;;;;;;5073532;28;19912;-66
2023/08/02 08:32:40;;;;;;;;;;;22.10;90.80;;;;;;5073432;28;19916;-66
2023/08/02 08:35:06;;;;;;;;;;;22.00;90.80;;;;;;5073511;28;19923;-68
2023/08/02 08:37:32;;;;;;;;;;;22.10;90.80;;;;;;5074499;28;19908;-68
2023/08/02 08:39:57;;;;;;;;;;;22.10;90.80;;;;;;5074366;28;19943;-64
2023/08/02 08:42:23;;;;;;;;;;;22.10;90.80;;;;;;5074504;28;19909;-66
2023/08/02 08:44:48;;;;;;;;;;;22.10;90.80;;;;;;5074756;28;19921;-66
2023/08/02 08:47:14;;;;;;;;;;;22.10;90.80;;;;;;5074013;28;20271;-65
2023/08/02 08:49:40;;;;;;;;;;;22.10;90.80;;;;;;5073959;28;20050;-66
2023/08/02 08:52:10;;;;;;;;;;;22.10;90.80;;;;;;5074376;28;19989;-68
2023/08/02 08:54:37;;;;;;;;;;;22.10;90.80;;;;;;5073141;28;20016;-67
2023/08/02 08:57:03;;;;;;;;;;;22.10;90.80;;;;;;5056863;28;20026;-72
2023/08/02 08:59:29;;;;;;;;;;;22.10;90.80;;;;;;5073774;28;19908;-70
2023/08/02 09:01:57;;;;;;;;;;;22.10;90.80;;;;;;5073122;28;19920;-70
2023/08/02 09:04:23;;;;;;;;;;;22.10;90.80;;;;;;5073924;28;19930;-68
2023/08/02 09:06:48;;;;;;;;;;;22.10;90.80;;;;;;5072752;28;19970;-75
2023/08/02 09:09:14;;;;;;;;;;;22.10;90.80;;;;;;5072042;28;19920;-67
2023/08/02 09:11:41;;;;;;;;;;;22.10;90.80;;;;;;5071935;28;19916;-62
2023/08/02 09:14:11;;;;;;;;;;;22.10;90.80;;;;;;5073870;28;20004;-62
2023/08/02 09:16:39;;;;;;;;;;;22.10;90.80;;;;;;5073825;28;20377;-62
2023/08/02 09:19:20;;;;;;;;;;;22.10;90.80;;;;;;5073072;28;19912;-65
2023/08/02 09:21:45;;;;;;;;;;;22.10;90.80;;;;;;5098506;28;19919;-69
2023/08/02 09:24:10;;;;;;;;;;;22.10;90.90;;;;;;5071573;28;19913;-70
2023/08/02 09:26:36;;;;;;;;;;;22.10;90.90;;;;;;5071932;28;19924;-73
2023/08/02 09:29:06;;;;;;;;;;;22.10;90.90;;;;;;5076960;28;19962;-68
2023/08/02 09:31:35;;;;;;;;;;;22.10;90.90;;;;;;5073844;28;19920;-70
2023/08/02 09:34:01;;;;;;;;;;;22.10;90.90;;;;;;5072143;28;19973;-71
2023/08/02 09:36:27;;;;;;;;;;;22.10;90.90;;;;;;5073379;28;19912;-65
2023/08/02 09:38:56;;;;;;;;;;;22.10;90.90;;;;;;5086472;28;19912;-64
2023/08/02 09:41:22;;;;;;;;;;;22.10;90.90;;;;;;5096668;28;19999;-67
2023/08/02 09:43:48;;;;;;;;;;;22.10;90.90;;;;;;5081521;28;20331;-69
2023/08/02 09:46:26;;;;;;;;;;;22.10;90.90;;;;;;5089472;28;19920;-67
2023/08/02 09:48:52;;;;;;;;;;;22.10;90.90;;;;;;5075234;28;19917;-63
2023/08/02 09:51:17;;;;;;;;;;;22.10;90.90;;;;;;5076614;28;19924;-67
2023/08/02 09:53:55;;;;;;;;;;;22.10;90.90;;;;;;5079826;28;19913;-64
2023/08/02 09:56:22;;;;;;;;;;;22.10;91.00;;;;;;5087960;28;19912;-63
2023/08/02 09:58:48;;;;;;;;;;;22.10;91.00;;;;;;5090430;28;19912;-64
2023/08/02 10:01:14;;;;;;;;;;;22.10;91.00;;;;;;5078752;28;19908;-64
2023/08/02 10:03:39;;;;;;;;;;;22.10;91.00;;;;;;5094289;28;19930;-66
2023/08/02 10:06:06;;;;;;;;;;;22.10;90.90;;;;;;5096679;28;19908;-65
2023/08/02 10:08:33;;;;;;;;;;;22.10;90.90;;;;;;5095217;28;19911;-65
2023/08/02 10:10:59;;;;;;;;;;;22.10;90.90;;;;;;5084068;28;20281;-69
2023/08/02 10:13:26;;;;;;;;;;;22.10;90.90;;;;;;5077477;28;19904;-66
2023/08/02 10:15:55;;;;;;;;;;;22.10;90.90;;;;;;5074967;28;19954;-73
2023/08/02 10:18:21;;;;;;;;;;;22.10;90.90;;;;;;5076453;28;19959;-63
2023/08/02 10:20:47;;;;;;;;;;;22.00;90.90;;;;;;5085753;28;19965;-71
2023/08/02 10:23:12;;;;;;;;;;;22.10;90.40;;;;;;5086340;28;19912;-59
2023/08/02 10:25:38;;;;;;;;;;;22.10;90.60;;;;;;5093567;28;19990;-64
2023/08/02 10:28:03;;;;;;;;;;;22.10;90.40;;;;;;5095802;28;19908;-64
2023/08/02 10:30:30;;;;;;;;;;;22.10;90.60;;;;;;5097132;28;19912;-65
2023/08/02 10:33:24;;;;;;;;;;;22.10;90.70;;;;;;5097514;28;19919;-65
2023/08/02 10:35:53;;;;;;;;;;;22.00;90.70;;;;;;5092214;28;19908;-65
2023/08/02 10:38:24;;;;;;;;;;;22.00;90.70;;;;;;5097174;28;20322;-65
2023/08/02 10:41:03;;;;;;;;;;;22.10;90.80;;;;;;5096726;28;20398;-65
2023/08/02 10:43:28;;;;;;;;;;;22.00;90.80;;;;;;5093617;28;19912;-65
2023/08/02 10:46:12;;;;;;;;;;;22.00;90.80;;;;;;5077263;28;19921;-64
2023/08/02 10:48:38;;;;;;;;;;;22.10;90.80;;;;;;5085708;28;19913;-66
2023/08/02 10:51:03;;;;;;;;;;;22.00;90.70;;;;;;5073840;28;19924;-67
2023/08/02 10:53:29;;;;;;;;;;;22.00;90.70;;;;;;5078789;28;20006;-66
2023/08/02 10:56:04;;;;;;;;;;;22.00;90.70;;;;;;5084729;28;19912;-65
2023/08/02 10:58:46;;;;;;;;;;;22.00;90.70;;;;;;5075156;28;20377;-66
2023/08/02 11:01:12;;;;;;;;;;;22.00;90.70;;;;;;5056212;28;20363;-66
2023/08/02 11:03:38;;;;;;;;;;;22.00;90.70;;;;;;5067829;28;19913;-65
2023/08/02 11:06:04;;;;;;;;;;;22.00;90.70;;;;;;5083224;28;19999;-66
2023/08/02 11:08:29;;;;;;;;;;;22.00;90.70;;;;;;5072622;28;19944;-65
2023/08/02 11:10:55;;;;;;;;;;;22.00;90.70;;;;;;5074927;28;20003;-65
2023/08/02 11:13:22;;;;;;;;;;;22.00;90.70;;;;;;5077004;28;19915;-65
2023/08/02 11:15:58;;;;;;;;;;;22.00;90.70;;;;;;5091234;28;19992;-65
2023/08/02 11:18:24;;;;;;;;;;;22.00;90.70;;;;;;5089325;28;20014;-64
2023/08/02 11:20:50;;;;;;;;;;;22.00;90.70;;;;;;5091385;28;20457;-65
2023/08/02 11:23:22;;;;;;;;;;;22.00;90.70;;;;;;5073696;28;20028;-65
2023/08/02 11:25:48;;;;;;;;;;;22.00;90.70;;;;;;5061938;28;19913;-69
2023/08/02 11:28:13;;;;;;;;;;;22.00;90.70;;;;;;5080171;28;19918;-65
2023/08/02 11:30:39;;;;;;;;;;;22.00;90.70;;;;;;5084890;28;20018;-69
2023/08/02 11:33:05;;;;;;;;;;;22.00;90.70;;;;;;5092916;28;20279;-64
2023/08/02 11:35:31;;;;;;;;;;;22.00;90.80;;;;;;5084908;28;20390;-60
2023/08/02 11:37:56;;;;;;;;;;;22.00;90.80;;;;;;5074416;28;19912;-61
2023/08/02 11:40:21;;;;;;;;;;;22.00;90.80;;;;;;5075557;28;19944;-61
2023/08/02 11:42:53;;;;;;;;;;;22.00;90.80;;;;;;5074604;28;19913;-65
2023/08/02 11:45:27;;;;;;;;;;;22.00;90.80;;;;;;5087101;28;19924;-63
2023/08/02 11:47:53;;;;;;;;;;;22.00;90.90;;;;;;5091700;28;20398;-65
2023/08/02 11:50:25;;;;;;;;;;;22.00;90.90;;;;;;5095450;28;20003;-63
2023/08/02 11:52:51;;;;;;;;;;;22.00;90.90;;;;;;5088794;28;19916;-63
2023/08/02 11:55:19;;;;;;;;;;;22.00;90.90;;;;;;5090035;28;19916;-60
2023/08/02 11:57:46;;;;;;;;;;;22.00;91.00;;;;;;5087077;28;19915;-62
2023/08/02 12:00:12;;;;;;;;;;;22.00;91.00;;;;;;5095661;28;20216;-61
2023/08/02 12:02:37;;;;;;;;;;;22.00;91.00;;;;;;5086992;28;20390;-66
2023/08/02 12:05:08;;;;;;;;;;;22.00;91.00;;;;;;5089354;28;19916;-63
2023/08/02 12:07:35;;;;;;;;;;;22.00;91.00;;;;;;5094961;28;20315;-67
2023/08/02 12:10:04;;;;;;;;;;;22.00;91.00;;;;;;5087347;28;19916;-63
2023/08/02 12:12:31;;;;;;;;;;;22.00;91.00;;;;;;5094078;28;19916;-66
2023/08/02 12:14:57;;;;;;;;;;;22.00;91.00;;;;;;5076125;28;19924;-64
2023/08/02 12:17:23;;;;;;;;;;;22.00;91.10;;;;;;5077354;28;20303;-64
2023/08/02 12:19:49;;;;;;;;;;;22.00;91.10;;;;;;5074654;28;20390;-62
2023/08/02 12:22:15;;;;;;;;;;;22.00;91.10;;;;;;5086490;28;19912;-68
2023/08/02 12:24:41;;;;;;;;;;;22.00;91.10;;;;;;5092082;28;20359;-64
2023/08/02 12:27:19;;;;;;;;;;;22.00;91.10;;;;;;5091435;28;19916;-65
2023/08/02 12:29:45;;;;;;;;;;;22.00;91.10;;;;;;5094630;28;19911;-64
2023/08/02 12:32:23;;;;;;;;;;;22.00;91.20;;;;;;5089281;28;19923;-64
2023/08/02 12:34:49;;;;;;;;;;;22.00;91.10;;;;;;5094641;28;19912;-65
2023/08/02 12:37:15;;;;;;;;;;;22.00;91.10;;;;;;5095022;28;20000;-63
2023/08/02 12:39:41;;;;;;;;;;;22.00;91.20;;;;;;5094763;28;19930;-62
2023/08/02 12:42:06;;;;;;;;;;;22.00;91.20;;;;;;5092454;28;19912;-63
2023/08/02 12:44:32;;;;;;;;;;;22.00;91.20;;;;;;5090184;28;19920;-62
2023/08/02 12:46:57;;;;;;;;;;;22.00;91.20;;;;;;5092276;28;19916;-62
2023/08/02 12:49:23;;;;;;;;;;;22.00;91.20;;;;;;5094525;28;19919;-63
2023/08/02 12:51:50;;;;;;;;;;;22.00;91.20;;;;;;5090270;28;20285;-62
2023/08/02 12:54:16;;;;;;;;;;;22.00;91.20;;;;;;5094309;28;19912;-62
2023/08/02 12:56:41;;;;;;;;;;;22.00;91.20;;;;;;5090916;28;19919;-63
2023/08/02 12:59:07;;;;;;;;;;;22.00;91.20;;;;;;5077283;28;19921;-64
2023/08/02 13:01:32;;;;;;;;;;;22.00;91.20;;;;;;5083647;28;21816;-67
2023/08/02 13:03:58;;;;;;;;;;;22.00;90.80;;;;;;5075258;28;20007;-64
2023/08/02 13:06:23;;;;;;;;;;;22.00;90.80;;;;;;5093065;28;19999;-63
2023/08/02 13:08:49;;;;;;;;;;;22.00;91.00;;;;;;5089014;28;19912;-62
2023/08/02 13:11:14;;;;;;;;;;;22.00;91.00;;;;;;5073403;28;19920;-60
2023/08/02 13:13:40;;;;;;;;;;;22.00;91.10;;;;;;5088326;28;19911;-63
2023/08/02 13:16:05;;;;;;;;;;;22.00;91.10;;;;;;5093625;28;19954;-61
2023/08/02 13:18:31;;;;;;;;;;;22.00;91.10;;;;;;5093860;28;20267;-62
2023/08/02 13:20:56;;;;;;;;;;;22.10;91.20;;;;;;5081290;28;19924;-61
2023/08/02 13:23:22;;;;;;;;;;;22.00;91.10;;;;;;5072390;28;20007;-64
2023/08/02 13:25:47;;;;;;;;;;;22.00;91.10;;;;;;5072713;28;19916;-61
2023/08/02 13:28:14;;;;;;;;;;;22.00;91.20;;;;;;5073712;28;19908;-61
2023/08/02 13:30:39;;;;;;;;;;;22.00;91.20;;;;;;5072143;28;19916;-59
2023/08/02 13:33:05;;;;;;;;;;;22.00;91.20;;;;;;5083262;28;20362;-67
2023/08/02 13:35:30;;;;;;;;;;;22.00;91.20;;;;;;5082199;28;20352;-66
2023/08/02 13:37:56;;;;;;;;;;;22.00;91.20;;;;;;5072490;28;20449;-69
2023/08/02 13:40:21;;;;;;;;;;;22.00;91.20;;;;;;5082394;28;19912;-63
2023/08/02 13:42:47;;;;;;;;;;;22.00;91.20;;;;;;5091490;28;19912;-65
2023/08/02 13:45:12;;;;;;;;;;;22.00;91.20;;;;;;5093773;28;19927;-64
2023/08/02 13:47:38;;;;;;;;;;;22.00;91.20;;;;;;5077742;28;19952;-64
2023/08/02 13:50:03;;;;;;;;;;;22.00;91.30;;;;;;5076532;28;20282;-62
2023/08/02 13:52:29;;;;;;;;;;;22.00;91.20;;;;;;5071021;28;19925;-60
2023/08/02 13:54:54;;;;;;;;;;;22.00;91.20;;;;;;5081798;28;19912;-63
2023/08/02 13:57:20;;;;;;;;;;;22.00;91.20;;;;;;5091159;28;20006;-67
2023/08/02 13:59:45;;;;;;;;;;;22.00;91.20;;;;;;5093647;28;19912;-67
2023/08/02 14:02:11;;;;;;;;;;;22.00;91.20;;;;;;5089124;28;20052;-63
2023/08/02 14:04:36;;;;;;;;;;;22.00;91.30;;;;;;5077857;28;19921;-62
2023/08/02 14:07:02;;;;;;;;;;;22.00;91.20;;;;;;5071544;28;19920;-62
2023/08/02 14:09:27;;;;;;;;;;;22.00;91.20;;;;;;5071297;28;20011;-62
2023/08/02 14:11:53;;;;;;;;;;;22.00;91.30;;;;;;5064366;28;19962;-63